Sachse, Texas
Current Conditions -  °F | °C
As of 11:35 AM on Thursday 30 Oct 2014 (Local Time) from KF46 Reporting Station
Clear Clear  
Wind Chill: 69°   Ceiling: Unl
Heat Index: 69°   Visibility: 10mi
Dew Point: 49°   Wind: 9mph
Humidity: 49%   Direction: 200°SSW
Pressure: 30.17"   Gusts: 17mph
Location:  32.9674°N, 96.5785°W
Report Text: KF46 301635Z AUTO 20008G15KT 130V210 10SM CLR 21/09 A3017 RMK AO2 T02060094
Loading
Personal Weather Stations






























Interactive Weather Map
Tropical Storm Tracking
New forecast layout! Learn more

10-Day Weather Forecast

Advertisements
Track Severe Weather on mobile